sensor_id;sensor_type;location;lat;lon;timestamp;pressure;altitude;pressure_sealevel;temperature
69435;BMP180;56625;54.322;18.582;2022-08-19T00:00:11;100517.20;;;22.40
69435;BMP180;56625;54.322;18.582;2022-08-19T00:03:03;100515.40;;;22.44
69435;BMP180;56625;54.322;18.582;2022-08-19T00:05:31;100519.60;;;22.40
69435;BMP180;56625;54.322;18.582;2022-08-19T00:07:59;100523.80;;;22.40
69435;BMP180;56625;54.322;18.582;2022-08-19T00:10:27;100520.00;;;22.36
69435;BMP180;56625;54.322;18.582;2022-08-19T00:12:55;100517.80;;;22.30
69435;BMP180;56625;54.322;18.582;2022-08-19T00:15:23;100517.20;;;22.30
69435;BMP180;56625;54.322;18.582;2022-08-19T00:17:51;100516.80;;;22.30
69435;BMP180;56625;54.322;18.582;2022-08-19T00:20:21;100520.80;;;22.30
69435;BMP180;56625;54.322;18.582;2022-08-19T00:22:49;100529.40;;;22.26
69435;BMP180;56625;54.322;18.582;2022-08-19T00:25:18;100536.80;;;22.10
69435;BMP180;56625;54.322;18.582;2022-08-19T00:27:57;100541.40;;;22.10
69435;BMP180;56625;54.322;18.582;2022-08-19T00:30:27;100544.60;;;22.10
69435;BMP180;56625;54.322;18.582;2022-08-19T00:32:58;100542.60;;;22.08
69435;BMP180;56625;54.322;18.582;2022-08-19T00:35:26;100540.40;;;22.10
69435;BMP180;56625;54.322;18.582;2022-08-19T00:37:55;100542.40;;;22.14
69435;BMP180;56625;54.322;18.582;2022-08-19T00:40:24;100537.20;;;22.20
69435;BMP180;56625;54.322;18.582;2022-08-19T00:42:52;100539.00;;;22.26
69435;BMP180;56625;54.322;18.582;2022-08-19T00:45:28;100543.00;;;22.30
69435;BMP180;56625;54.322;18.582;2022-08-19T00:47:59;100543.40;;;22.10
69435;BMP180;56625;54.322;18.582;2022-08-19T00:50:42;100545.60;;;22.00
69435;BMP180;56625;54.322;18.582;2022-08-19T00:53:24;100546.40;;;22.00
69435;BMP180;56625;54.322;18.582;2022-08-19T00:55:58;100545.40;;;22.10
69435;BMP180;56625;54.322;18.582;2022-08-19T00:58:32;100541.80;;;22.10
69435;BMP180;56625;54.322;18.582;2022-08-19T01:01:04;100539.20;;;22.10
69435;BMP180;56625;54.322;18.582;2022-08-19T01:03:31;100544.60;;;22.10
69435;BMP180;56625;54.322;18.582;2022-08-19T01:06:20;100542.40;;;22.00
69435;BMP180;56625;54.322;18.582;2022-08-19T01:08:48;100542.80;;;21.80
69435;BMP180;56625;54.322;18.582;2022-08-19T01:11:16;100542.00;;;21.70
69435;BMP180;56625;54.322;18.582;2022-08-19T01:13:46;100546.40;;;21.72
69435;BMP180;56625;54.322;18.582;2022-08-19T01:16:21;100548.80;;;21.80
69435;BMP180;56625;54.322;18.582;2022-08-19T01:18:50;100546.80;;;21.70
69435;BMP180;56625;54.322;18.582;2022-08-19T01:21:31;100546.20;;;21.60
69435;BMP180;56625;54.322;18.582;2022-08-19T01:24:00;100538.80;;;21.60
69435;BMP180;56625;54.322;18.582;2022-08-19T01:26:28;100537.00;;;21.60
69435;BMP180;56625;54.322;18.582;2022-08-19T01:28:59;100542.60;;;21.50
69435;BMP180;56625;54.322;18.582;2022-08-19T01:31:31;100543.00;;;21.48
69435;BMP180;56625;54.322;18.582;2022-08-19T01:34:01;100541.80;;;21.50
69435;BMP180;56625;54.322;18.582;2022-08-19T01:36:44;100535.40;;;21.50
69435;BMP180;56625;54.322;18.582;2022-08-19T01:39:23;100536.80;;;21.60
69435;BMP180;56625;54.322;18.582;2022-08-19T01:41:51;100529.80;;;21.70
69435;BMP180;56625;54.322;18.582;2022-08-19T01:44:22;100526.00;;;21.78
69435;BMP180;56625;54.322;18.582;2022-08-19T01:46:52;100527.80;;;21.78
69435;BMP180;56625;54.322;18.582;2022-08-19T01:49:23;100530.80;;;21.60
69435;BMP180;56625;54.322;18.582;2022-08-19T01:51:53;100537.00;;;21.50
69435;BMP180;56625;54.322;18.582;2022-08-19T01:54:24;100539.40;;;21.40
69435;BMP180;56625;54.322;18.582;2022-08-19T01:57:08;100546.20;;;21.40
69435;BMP180;56625;54.322;18.582;2022-08-19T01:59:41;100541.20;;;21.42
69435;BMP180;56625;54.322;18.582;2022-08-19T02:02:10;100538.80;;;21.50
69435;BMP180;56625;54.322;18.582;2022-08-19T02:04:38;100531.60;;;21.56
69435;BMP180;56625;54.322;18.582;2022-08-19T02:07:07;100526.40;;;21.60
69435;BMP180;56625;54.322;18.582;2022-08-19T02:09:36;100529.80;;;21.60
69435;BMP180;56625;54.322;18.582;2022-08-19T02:12:05;100530.40;;;21.48
69435;BMP180;56625;54.322;18.582;2022-08-19T02:14:36;100521.40;;;21.30
69435;BMP180;56625;54.322;18.582;2022-08-19T02:17:04;100525.80;;;21.30
69435;BMP180;56625;54.322;18.582;2022-08-19T02:19:32;100524.80;;;21.34
69435;BMP180;56625;54.322;18.582;2022-08-19T02:22:00;100524.80;;;21.30
69435;BMP180;56625;54.322;18.582;2022-08-19T02:24:28;100522.20;;;21.20
69435;BMP180;56625;54.322;18.582;2022-08-19T02:26:56;100519.00;;;21.22
69435;BMP180;56625;54.322;18.582;2022-08-19T02:29:24;100518.40;;;21.30
69435;BMP180;56625;54.322;18.582;2022-08-19T02:31:52;100515.20;;;21.40
69435;BMP180;56625;54.322;18.582;2022-08-19T02:34:21;100510.20;;;21.40
69435;BMP180;56625;54.322;18.582;2022-08-19T02:36:49;100506.60;;;21.40
69435;BMP180;56625;54.322;18.582;2022-08-19T02:39:19;100511.40;;;21.40
69435;BMP180;56625;54.322;18.582;2022-08-19T02:41:47;100515.60;;;21.30
69435;BMP180;56625;54.322;18.582;2022-08-19T02:44:15;100514.40;;;21.10
69435;BMP180;56625;54.322;18.582;2022-08-19T02:46:58;100514.20;;;21.12
69435;BMP180;56625;54.322;18.582;2022-08-19T02:49:26;100518.40;;;21.20
69435;BMP180;56625;54.322;18.582;2022-08-19T02:51:53;100515.60;;;21.30
69435;BMP180;56625;54.322;18.582;2022-08-19T02:54:21;100516.40;;;21.30
69435;BMP180;56625;54.322;18.582;2022-08-19T02:56:49;100521.40;;;21.20
69435;BMP180;56625;54.322;18.582;2022-08-19T02:59:17;100523.60;;;21.28
69435;BMP180;56625;54.322;18.582;2022-08-19T03:01:49;100524.80;;;21.40
69435;BMP180;56625;54.322;18.582;2022-08-19T03:04:18;100526.40;;;21.40
69435;BMP180;56625;54.322;18.582;2022-08-19T03:06:47;100528.20;;;21.40
69435;BMP180;56625;54.322;18.582;2022-08-19T03:09:18;100524.40;;;21.50
69435;BMP180;56625;54.322;18.582;2022-08-19T03:11:47;100517.00;;;21.50
69435;BMP180;56625;54.322;18.582;2022-08-19T03:14:19;100515.20;;;21.50
69435;BMP180;56625;54.322;18.582;2022-08-19T03:16:51;100515.60;;;21.58
69435;BMP180;56625;54.322;18.582;2022-08-19T03:19:20;100518.20;;;21.56
69435;BMP180;56625;54.322;18.582;2022-08-19T03:21:52;100515.80;;;21.50
69435;BMP180;56625;54.322;18.582;2022-08-19T03:24:20;100518.00;;;21.50
69435;BMP180;56625;54.322;18.582;2022-08-19T03:26:53;100519.40;;;21.50
69435;BMP180;56625;54.322;18.582;2022-08-19T03:29:28;100516.60;;;21.54
69435;BMP180;56625;54.322;18.582;2022-08-19T03:32:00;100520.20;;;21.60
69435;BMP180;56625;54.322;18.582;2022-08-19T03:34:34;100523.40;;;21.70
69435;BMP180;56625;54.322;18.582;2022-08-19T03:37:10;100524.80;;;21.70
69435;BMP180;56625;54.322;18.582;2022-08-19T03:39:42;100524.60;;;21.70
69435;BMP180;56625;54.322;18.582;2022-08-19T03:42:11;100522.20;;;21.70
69435;BMP180;56625;54.322;18.582;2022-08-19T03:44:59;100515.80;;;21.80
69435;BMP180;56625;54.322;18.582;2022-08-19T03:47:26;100518.20;;;21.80
69435;BMP180;56625;54.322;18.582;2022-08-19T03:49:54;100511.00;;;21.80
69435;BMP180;56625;54.322;18.582;2022-08-19T03:52:23;100511.20;;;21.80
69435;BMP180;56625;54.322;18.582;2022-08-19T03:54:50;100505.20;;;21.80
69435;BMP180;56625;54.322;18.582;2022-08-19T03:57:19;100511.40;;;21.88
69435;BMP180;56625;54.322;18.582;2022-08-19T03:59:50;100513.20;;;21.90
69435;BMP180;56625;54.322;18.582;2022-08-19T04:02:18;100511.20;;;21.90
69435;BMP180;56625;54.322;18.582;2022-08-19T04:04:46;100508.00;;;21.96
69435;BMP180;56625;54.322;18.582;2022-08-19T04:07:15;100511.00;;;22.00
69435;BMP180;56625;54.322;18.582;2022-08-19T04:09:43;100520.40;;;22.00
69435;BMP180;56625;54.322;18.582;2022-08-19T04:12:11;100521.80;;;22.00
69435;BMP180;56625;54.322;18.582;2022-08-19T04:14:39;100524.60;;;22.00
69435;BMP180;56625;54.322;18.582;2022-08-19T04:17:07;100524.20;;;22.00
69435;BMP180;56625;54.322;18.582;2022-08-19T04:19:36;100524.00;;;22.10
69435;BMP180;56625;54.322;18.582;2022-08-19T04:22:05;100524.00;;;22.12
69435;BMP180;56625;54.322;18.582;2022-08-19T04:24:34;100526.80;;;22.12
69435;BMP180;56625;54.322;18.582;2022-08-19T04:27:04;100522.60;;;22.30
69435;BMP180;56625;54.322;18.582;2022-08-19T04:29:33;100524.00;;;22.58
69435;BMP180;56625;54.322;18.582;2022-08-19T04:32:02;100524.80;;;22.80
69435;BMP180;56625;54.322;18.582;2022-08-19T04:34:37;100524.40;;;22.98
69435;BMP180;56625;54.322;18.582;2022-08-19T04:37:27;100521.40;;;23.18
69435;BMP180;56625;54.322;18.582;2022-08-19T04:40:05;100522.80;;;23.30
69435;BMP180;56625;54.322;18.582;2022-08-19T04:42:52;100516.00;;;23.60
69435;BMP180;56625;54.322;18.582;2022-08-19T04:45:22;100514.00;;;23.80
69435;BMP180;56625;54.322;18.582;2022-08-19T04:47:55;100509.20;;;24.00
69435;BMP180;56625;54.322;18.582;2022-08-19T04:50:47;100513.20;;;24.14
69435;BMP180;56625;54.322;18.582;2022-08-19T04:53:16;100517.40;;;24.32
69435;BMP180;56625;54.322;18.582;2022-08-19T04:55:44;100514.00;;;24.50
69435;BMP180;56625;54.322;18.582;2022-08-19T04:58:12;100516.60;;;24.70
69435;BMP180;56625;54.322;18.582;2022-08-19T05:00:41;100521.60;;;24.70
69435;BMP180;56625;54.322;18.582;2022-08-19T05:03:09;100525.80;;;24.70
69435;BMP180;56625;54.322;18.582;2022-08-19T05:05:40;100529.00;;;24.70
69435;BMP180;56625;54.322;18.582;2022-08-19T05:08:14;100529.40;;;24.70
69435;BMP180;56625;54.322;18.582;2022-08-19T05:10:58;100526.40;;;24.70
69435;BMP180;56625;54.322;18.582;2022-08-19T05:13:26;100524.60;;;24.60
69435;BMP180;56625;54.322;18.582;2022-08-19T05:15:57;100523.20;;;24.60
69435;BMP180;56625;54.322;18.582;2022-08-19T05:18:26;100519.80;;;24.60
69435;BMP180;56625;54.322;18.582;2022-08-19T05:21:34;100518.60;;;24.50
69435;BMP180;56625;54.322;18.582;2022-08-19T05:24:22;100523.20;;;24.60
69435;BMP180;56625;54.322;18.582;2022-08-19T05:26:52;100515.80;;;24.60
69435;BMP180;56625;54.322;18.582;2022-08-19T05:29:21;100514.60;;;24.60
69435;BMP180;56625;54.322;18.582;2022-08-19T05:31:50;100514.40;;;24.60
69435;BMP180;56625;54.322;18.582;2022-08-19T05:34:23;100513.40;;;24.70
69435;BMP180;56625;54.322;18.582;2022-08-19T05:36:58;100514.00;;;24.80
69435;BMP180;56625;54.322;18.582;2022-08-19T05:39:28;100521.00;;;24.60
69435;BMP180;56625;54.322;18.582;2022-08-19T05:42:02;100524.60;;;24.60
69435;BMP180;56625;54.322;18.582;2022-08-19T05:44:34;100530.40;;;24.52
69435;BMP180;56625;54.322;18.582;2022-08-19T05:47:06;100533.20;;;24.60
69435;BMP180;56625;54.322;18.582;2022-08-19T05:49:35;100536.80;;;24.76
69435;BMP180;56625;54.322;18.582;2022-08-19T05:52:10;100536.00;;;24.90
69435;BMP180;56625;54.322;18.582;2022-08-19T05:54:40;100531.00;;;25.00
69435;BMP180;56625;54.322;18.582;2022-08-19T05:57:10;100538.00;;;25.10
69435;BMP180;56625;54.322;18.582;2022-08-19T05:59:40;100538.20;;;25.20
69435;BMP180;56625;54.322;18.582;2022-08-19T06:02:07;100540.40;;;25.30
69435;BMP180;56625;54.322;18.582;2022-08-19T06:04:35;100551.20;;;25.40
69435;BMP180;56625;54.322;18.582;2022-08-19T06:07:03;100552.20;;;25.40
69435;BMP180;56625;54.322;18.582;2022-08-19T06:09:40;100556.00;;;25.40
69435;BMP180;56625;54.322;18.582;2022-08-19T06:12:30;100556.00;;;25.40
69435;BMP180;56625;54.322;18.582;2022-08-19T06:15:05;100556.40;;;25.28
69435;BMP180;56625;54.322;18.582;2022-08-19T06:17:33;100556.60;;;25.20
69435;BMP180;56625;54.322;18.582;2022-08-19T06:20:06;100552.80;;;25.20
69435;BMP180;56625;54.322;18.582;2022-08-19T06:22:41;100554.60;;;25.20
69435;BMP180;56625;54.322;18.582;2022-08-19T06:25:11;100555.80;;;25.20
69435;BMP180;56625;54.322;18.582;2022-08-19T06:27:40;100551.20;;;25.20
69435;BMP180;56625;54.322;18.582;2022-08-19T06:30:28;100549.80;;;25.12
69435;BMP180;56625;54.322;18.582;2022-08-19T06:32:56;100548.00;;;25.10
69435;BMP180;56625;54.322;18.582;2022-08-19T06:35:24;100548.20;;;25.20
69435;BMP180;56625;54.322;18.582;2022-08-19T06:37:52;100551.60;;;25.34
69435;BMP180;56625;54.322;18.582;2022-08-19T06:40:22;100549.00;;;25.48
69435;BMP180;56625;54.322;18.582;2022-08-19T06:42:49;100556.40;;;25.50
69435;BMP180;56625;54.322;18.582;2022-08-19T06:45:23;100548.20;;;25.60
69435;BMP180;56625;54.322;18.582;2022-08-19T06:48:02;100545.60;;;25.70
69435;BMP180;56625;54.322;18.582;2022-08-19T06:50:30;100545.00;;;25.80
69435;BMP180;56625;54.322;18.582;2022-08-19T06:52:58;100547.20;;;25.90
69435;BMP180;56625;54.322;18.582;2022-08-19T06:55:31;100542.80;;;26.00
69435;BMP180;56625;54.322;18.582;2022-08-19T06:58:04;100535.60;;;26.10
69435;BMP180;56625;54.322;18.582;2022-08-19T07:00:32;100532.20;;;26.20
69435;BMP180;56625;54.322;18.582;2022-08-19T07:03:01;100536.40;;;26.20
69435;BMP180;56625;54.322;18.582;2022-08-19T07:05:42;100532.00;;;26.20
69435;BMP180;56625;54.322;18.582;2022-08-19T07:08:13;100542.00;;;26.30
69435;BMP180;56625;54.322;18.582;2022-08-19T07:10:45;100543.40;;;26.40
69435;BMP180;56625;54.322;18.582;2022-08-19T07:13:13;100543.20;;;26.50
69435;BMP180;56625;54.322;18.582;2022-08-19T07:15:41;100545.60;;;26.58
69435;BMP180;56625;54.322;18.582;2022-08-19T07:18:09;100542.00;;;26.66
69435;BMP180;56625;54.322;18.582;2022-08-19T07:20:40;100538.60;;;26.70
69435;BMP180;56625;54.322;18.582;2022-08-19T07:28:20;100548.60;;;27.20
69435;BMP180;56625;54.322;18.582;2022-08-19T07:31:18;100548.00;;;27.38
69435;BMP180;56625;54.322;18.582;2022-08-19T07:34:35;100542.60;;;27.42
69435;BMP180;56625;54.322;18.582;2022-08-19T07:37:33;100542.40;;;27.60
69435;BMP180;56625;54.322;18.582;2022-08-19T07:40:34;100544.60;;;27.84
69435;BMP180;56625;54.322;18.582;2022-08-19T07:43:07;100536.40;;;28.00
69435;BMP180;56625;54.322;18.582;2022-08-19T07:45:42;100534.00;;;28.10
69435;BMP180;56625;54.322;18.582;2022-08-19T07:48:14;100535.40;;;28.28
69435;BMP180;56625;54.322;18.582;2022-08-19T07:50:45;100532.40;;;28.30
69435;BMP180;56625;54.322;18.582;2022-08-19T07:53:14;100537.00;;;28.44
69435;BMP180;56625;54.322;18.582;2022-08-19T07:55:42;100535.80;;;28.50
69435;BMP180;56625;54.322;18.582;2022-08-19T07:58:14;100536.00;;;28.50
69435;BMP180;56625;54.322;18.582;2022-08-19T08:00:46;100532.40;;;28.66
69435;BMP180;56625;54.322;18.582;2022-08-19T08:03:18;100538.40;;;28.80
69435;BMP180;56625;54.322;18.582;2022-08-19T08:05:46;100534.40;;;28.90
69435;BMP180;56625;54.322;18.582;2022-08-19T08:08:33;100531.80;;;28.90
69435;BMP180;56625;54.322;18.582;2022-08-19T08:11:20;100523.60;;;29.00
69435;BMP180;56625;54.322;18.582;2022-08-19T08:13:51;100529.00;;;29.10
69435;BMP180;56625;54.322;18.582;2022-08-19T08:16:40;100528.20;;;29.20
69435;BMP180;56625;54.322;18.582;2022-08-19T08:19:14;100528.60;;;29.30
69435;BMP180;56625;54.322;18.582;2022-08-19T08:22:01;100526.80;;;29.50
69435;BMP180;56625;54.322;18.582;2022-08-19T08:24:47;100521.00;;;29.70
69435;BMP180;56625;54.322;18.582;2022-08-19T08:27:15;100519.40;;;29.90
69435;BMP180;56625;54.322;18.582;2022-08-19T08:29:44;100514.20;;;30.00
69435;BMP180;56625;54.322;18.582;2022-08-19T08:32:12;100514.40;;;30.00
69435;BMP180;56625;54.322;18.582;2022-08-19T08:34:42;100509.00;;;30.08
69435;BMP180;56625;54.322;18.582;2022-08-19T08:37:10;100508.60;;;30.10
69435;BMP180;56625;54.322;18.582;2022-08-19T08:39:42;100513.40;;;30.10
69435;BMP180;56625;54.322;18.582;2022-08-19T08:42:24;100512.80;;;30.10
69435;BMP180;56625;54.322;18.582;2022-08-19T08:45:14;100506.60;;;30.20
69435;BMP180;56625;54.322;18.582;2022-08-19T08:47:55;100511.20;;;30.30
69435;BMP180;56625;54.322;18.582;2022-08-19T08:50:41;100505.80;;;30.30
69435;BMP180;56625;54.322;18.582;2022-08-19T08:53:16;100498.20;;;30.46
69435;BMP180;56625;54.322;18.582;2022-08-19T08:56:06;100504.20;;;30.60
69435;BMP180;56625;54.322;18.582;2022-08-19T08:59:16;100501.20;;;30.78
69435;BMP180;56625;54.322;18.582;2022-08-19T09:01:57;100499.40;;;30.90
69435;BMP180;56625;54.322;18.582;2022-08-19T09:04:29;100497.40;;;31.12
69435;BMP180;56625;54.322;18.582;2022-08-19T09:07:39;100492.20;;;31.30
69435;BMP180;56625;54.322;18.582;2022-08-19T09:10:31;100487.80;;;31.30
69435;BMP180;56625;54.322;18.582;2022-08-19T09:16:28;100490.20;;;31.20
69435;BMP180;56625;54.322;18.582;2022-08-19T09:19:30;100488.00;;;31.26
69435;BMP180;56625;54.322;18.582;2022-08-19T09:22:29;100490.00;;;31.30
69435;BMP180;56625;54.322;18.582;2022-08-19T09:25:13;100486.80;;;31.40
69435;BMP180;56625;54.322;18.582;2022-08-19T09:28:58;100486.60;;;31.40
69435;BMP180;56625;54.322;18.582;2022-08-19T09:32:36;100480.40;;;31.50
69435;BMP180;56625;54.322;18.582;2022-08-19T09:36:21;100479.00;;;31.60
69435;BMP180;56625;54.322;18.582;2022-08-19T09:39:34;100479.60;;;31.64
69435;BMP180;56625;54.322;18.582;2022-08-19T09:42:08;100476.00;;;31.70
69435;BMP180;56625;54.322;18.582;2022-08-19T09:45:34;100478.20;;;31.70
69435;BMP180;56625;54.322;18.582;2022-08-19T09:48:33;100481.60;;;31.78
69435;BMP180;56625;54.322;18.582;2022-08-19T09:51:10;100474.60;;;31.86
69435;BMP180;56625;54.322;18.582;2022-08-19T09:53:39;100478.40;;;31.90
69435;BMP180;56625;54.322;18.582;2022-08-19T09:56:11;100476.80;;;32.02
69435;BMP180;56625;54.322;18.582;2022-08-19T09:58:40;100479.20;;;32.20
69435;BMP180;56625;54.322;18.582;2022-08-19T10:01:09;100477.60;;;32.36
69435;BMP180;56625;54.322;18.582;2022-08-19T10:03:38;100475.60;;;32.40
69435;BMP180;56625;54.322;18.582;2022-08-19T10:06:06;100475.20;;;32.50
69435;BMP180;56625;54.322;18.582;2022-08-19T10:08:44;100473.20;;;32.40
69435;BMP180;56625;54.322;18.582;2022-08-19T10:11:18;100473.40;;;32.40
69435;BMP180;56625;54.322;18.582;2022-08-19T10:14:07;100470.00;;;32.50
69435;BMP180;56625;54.322;18.582;2022-08-19T10:16:43;100475.40;;;32.40
69435;BMP180;56625;54.322;18.582;2022-08-19T10:19:18;100470.20;;;32.20
69435;BMP180;56625;54.322;18.582;2022-08-19T10:21:53;100466.40;;;32.10
69435;BMP180;56625;54.322;18.582;2022-08-19T10:24:27;100460.40;;;32.10
69435;BMP180;56625;54.322;18.582;2022-08-19T10:26:59;100459.00;;;32.20
69435;BMP180;56625;54.322;18.582;2022-08-19T10:29:30;100454.40;;;32.30
69435;BMP180;56625;54.322;18.582;2022-08-19T10:32:19;100450.40;;;32.30
69435;BMP180;56625;54.322;18.582;2022-08-19T10:35:22;100453.00;;;32.20
69435;BMP180;56625;54.322;18.582;2022-08-19T10:39:09;100461.80;;;32.50
69435;BMP180;56625;54.322;18.582;2022-08-19T10:41:48;100454.00;;;32.50
69435;BMP180;56625;54.322;18.582;2022-08-19T10:44:31;100451.60;;;32.68
69435;BMP180;56625;54.322;18.582;2022-08-19T10:47:40;100454.60;;;32.72
69435;BMP180;56625;54.322;18.582;2022-08-19T10:50:41;100438.40;;;33.10
69435;BMP180;56625;54.322;18.582;2022-08-19T10:53:59;100439.20;;;33.30
69435;BMP180;56625;54.322;18.582;2022-08-19T10:56:29;100441.20;;;33.30
69435;BMP180;56625;54.322;18.582;2022-08-19T10:59:27;100436.80;;;33.40
69435;BMP180;56625;54.322;18.582;2022-08-19T11:02:06;100439.40;;;33.22
69435;BMP180;56625;54.322;18.582;2022-08-19T11:04:35;100440.00;;;33.10
69435;BMP180;56625;54.322;18.582;2022-08-19T11:07:05;100433.20;;;33.10
69435;BMP180;56625;54.322;18.582;2022-08-19T11:09:42;100429.20;;;33.20
69435;BMP180;56625;54.322;18.582;2022-08-19T11:12:22;100423.00;;;33.20
69435;BMP180;56625;54.322;18.582;2022-08-19T11:14:52;100413.60;;;33.20
69435;BMP180;56625;54.322;18.582;2022-08-19T11:17:22;100410.00;;;33.20
69435;BMP180;56625;54.322;18.582;2022-08-19T11:19:51;100406.20;;;33.30
69435;BMP180;56625;54.322;18.582;2022-08-19T11:22:19;100401.60;;;33.40
69435;BMP180;56625;54.322;18.582;2022-08-19T11:24:47;100402.20;;;33.40
69435;BMP180;56625;54.322;18.582;2022-08-19T11:27:15;100400.80;;;33.42
69435;BMP180;56625;54.322;18.582;2022-08-19T11:29:49;100411.60;;;33.42
69435;BMP180;56625;54.322;18.582;2022-08-19T11:32:24;100403.40;;;33.42
69435;BMP180;56625;54.322;18.582;2022-08-19T11:35:02;100406.60;;;33.46
69435;BMP180;56625;54.322;18.582;2022-08-19T11:37:51;100407.80;;;33.40
69435;BMP180;56625;54.322;18.582;2022-08-19T11:40:36;100405.80;;;33.40
69435;BMP180;56625;54.322;18.582;2022-08-19T11:44:14;100393.60;;;33.30
69435;BMP180;56625;54.322;18.582;2022-08-19T11:46:46;100399.60;;;33.04
69435;BMP180;56625;54.322;18.582;2022-08-19T11:49:17;100400.80;;;32.80
69435;BMP180;56625;54.322;18.582;2022-08-19T11:51:49;100391.60;;;32.80
69435;BMP180;56625;54.322;18.582;2022-08-19T11:54:20;100392.80;;;32.90
69435;BMP180;56625;54.322;18.582;2022-08-19T11:56:48;100384.80;;;32.90
69435;BMP180;56625;54.322;18.582;2022-08-19T11:59:16;100381.60;;;33.00
69435;BMP180;56625;54.322;18.582;2022-08-19T12:01:44;100386.60;;;33.10
69435;BMP180;56625;54.322;18.582;2022-08-19T12:04:12;100381.20;;;33.06
69435;BMP180;56625;54.322;18.582;2022-08-19T12:06:41;100380.20;;;33.20
69435;BMP180;56625;54.322;18.582;2022-08-19T12:09:10;100376.40;;;33.34
69435;BMP180;56625;54.322;18.582;2022-08-19T12:11:39;100371.60;;;33.40
69435;BMP180;56625;54.322;18.582;2022-08-19T12:14:12;100372.40;;;33.50
69435;BMP180;56625;54.322;18.582;2022-08-19T12:16:45;100365.40;;;33.42
69435;BMP180;56625;54.322;18.582;2022-08-19T12:19:19;100364.40;;;33.10
69435;BMP180;56625;54.322;18.582;2022-08-19T12:21:50;100369.20;;;33.00
69435;BMP180;56625;54.322;18.582;2022-08-19T12:24:19;100362.00;;;33.10
69435;BMP180;56625;54.322;18.582;2022-08-19T12:26:51;100359.60;;;33.20
69435;BMP180;56625;54.322;18.582;2022-08-19T12:29:21;100357.60;;;33.30
69435;BMP180;56625;54.322;18.582;2022-08-19T12:31:59;100348.80;;;33.50
69435;BMP180;56625;54.322;18.582;2022-08-19T12:34:39;100359.60;;;33.50
69435;BMP180;56625;54.322;18.582;2022-08-19T12:37:15;100355.20;;;33.50
69435;BMP180;56625;54.322;18.582;2022-08-19T12:39:47;100347.40;;;33.52
69435;BMP180;56625;54.322;18.582;2022-08-19T12:42:15;100353.00;;;33.66
69435;BMP180;56625;54.322;18.582;2022-08-19T12:44:50;100350.40;;;33.70
69435;BMP180;56625;54.322;18.582;2022-08-19T12:48:28;100345.00;;;33.80
69435;BMP180;56625;54.322;18.582;2022-08-19T12:57:43;100329.40;;;33.76
69435;BMP180;56625;54.322;18.582;2022-08-19T13:01:59;100336.00;;;33.30
69435;BMP180;56625;54.322;18.582;2022-08-19T13:04:58;100324.80;;;33.00
69435;BMP180;56625;54.322;18.582;2022-08-19T13:07:28;100329.20;;;33.00
69435;BMP180;56625;54.322;18.582;2022-08-19T13:10:08;100324.00;;;33.10
69435;BMP180;56625;54.322;18.582;2022-08-19T13:12:38;100314.00;;;33.20
69435;BMP180;56625;54.322;18.582;2022-08-19T13:15:12;100316.40;;;33.40
69435;BMP180;56625;54.322;18.582;2022-08-19T13:17:57;100313.60;;;33.40
69435;BMP180;56625;54.322;18.582;2022-08-19T13:20:55;100318.80;;;33.30
69435;BMP180;56625;54.322;18.582;2022-08-19T13:23:43;100320.20;;;33.38
69435;BMP180;56625;54.322;18.582;2022-08-19T13:26:15;100322.40;;;33.46
69435;BMP180;56625;54.322;18.582;2022-08-19T13:28:45;100316.40;;;33.40
69435;BMP180;56625;54.322;18.582;2022-08-19T13:31:35;100310.80;;;33.50
69435;BMP180;56625;54.322;18.582;2022-08-19T13:34:33;100307.40;;;33.50
69435;BMP180;56625;54.322;18.582;2022-08-19T13:37:03;100301.00;;;33.52
69435;BMP180;56625;54.322;18.582;2022-08-19T13:39:34;100292.40;;;33.60
69435;BMP180;56625;54.322;18.582;2022-08-19T13:42:06;100298.60;;;33.70
69435;BMP180;56625;54.322;18.582;2022-08-19T13:44:36;100293.60;;;33.70
69435;BMP180;56625;54.322;18.582;2022-08-19T13:47:06;100294.40;;;33.60
69435;BMP180;56625;54.322;18.582;2022-08-19T13:49:36;100299.60;;;33.64
69435;BMP180;56625;54.322;18.582;2022-08-19T13:52:05;100296.20;;;33.70
69435;BMP180;56625;54.322;18.582;2022-08-19T13:55:03;100297.00;;;33.80
69435;BMP180;56625;54.322;18.582;2022-08-19T13:57:35;100293.20;;;33.80
69435;BMP180;56625;54.322;18.582;2022-08-19T14:00:18;100292.80;;;33.70
69435;BMP180;56625;54.322;18.582;2022-08-19T14:03:07;100292.60;;;33.56
69435;BMP180;56625;54.322;18.582;2022-08-19T14:06:02;100297.80;;;33.54
69435;BMP180;56625;54.322;18.582;2022-08-19T14:08:46;100299.20;;;33.60
69435;BMP180;56625;54.322;18.582;2022-08-19T14:11:15;100295.40;;;33.70
69435;BMP180;56625;54.322;18.582;2022-08-19T14:13:50;100295.00;;;33.80
69435;BMP180;56625;54.322;18.582;2022-08-19T14:16:21;100299.40;;;33.80
69435;BMP180;56625;54.322;18.582;2022-08-19T14:19:02;100292.00;;;33.80
69435;BMP180;56625;54.322;18.582;2022-08-19T14:21:41;100295.60;;;33.70
69435;BMP180;56625;54.322;18.582;2022-08-19T14:24:12;100294.40;;;33.80
69435;BMP180;56625;54.322;18.582;2022-08-19T14:26:43;100298.20;;;33.60
69435;BMP180;56625;54.322;18.582;2022-08-19T14:29:18;100292.40;;;33.50
69435;BMP180;56625;54.322;18.582;2022-08-19T14:32:00;100298.40;;;33.50
69435;BMP180;56625;54.322;18.582;2022-08-19T14:34:28;100297.20;;;33.30
69435;BMP180;56625;54.322;18.582;2022-08-19T14:36:56;100298.20;;;33.10
69435;BMP180;56625;54.322;18.582;2022-08-19T14:39:28;100305.80;;;33.00
69435;BMP180;56625;54.322;18.582;2022-08-19T14:41:56;100303.80;;;32.90
69435;BMP180;56625;54.322;18.582;2022-08-19T14:44:29;100303.60;;;32.90
69435;BMP180;56625;54.322;18.582;2022-08-19T14:47:01;100295.80;;;32.86
69435;BMP180;56625;54.322;18.582;2022-08-19T14:49:30;100301.00;;;32.80